sensor_id;sensor_type;location;lat;lon;timestamp;P1;durP1;ratioP1;P2;durP2;ratioP2
14688;SDS011;7432;48.728;9.154;2023-10-08T00:01:53;9.00;;;8.20;;
14688;SDS011;7432;48.728;9.154;2023-10-08T00:04:22;9.27;;;8.37;;
14688;SDS011;7432;48.728;9.154;2023-10-08T00:06:49;9.07;;;8.10;;
14688;SDS011;7432;48.728;9.154;2023-10-08T00:09:17;9.97;;;8.60;;
14688;SDS011;7432;48.728;9.154;2023-10-08T00:11:46;9.10;;;8.20;;
14688;SDS011;7432;48.728;9.154;2023-10-08T00:14:16;11.23;;;8.20;;
14688;SDS011;7432;48.728;9.154;2023-10-08T00:16:46;8.57;;;7.63;;
14688;SDS011;7432;48.728;9.154;2023-10-08T00:19:15;10.57;;;8.20;;
14688;SDS011;7432;48.728;9.154;2023-10-08T00:21:44;9.10;;;8.20;;
14688;SDS011;7432;48.728;9.154;2023-10-08T00:24:13;8.83;;;8.03;;
14688;SDS011;7432;48.728;9.154;2023-10-08T00:26:40;9.50;;;8.60;;
14688;SDS011;7432;48.728;9.154;2023-10-08T00:29:08;11.80;;;8.23;;
14688;SDS011;7432;48.728;9.154;2023-10-08T00:31:41;8.83;;;8.03;;
14688;SDS011;7432;48.728;9.154;2023-10-08T00:34:10;9.13;;;8.33;;
14688;SDS011;7432;48.728;9.154;2023-10-08T00:36:38;9.53;;;8.63;;
14688;SDS011;7432;48.728;9.154;2023-10-08T00:39:06;9.30;;;8.50;;
14688;SDS011;7432;48.728;9.154;2023-10-08T00:41:38;9.30;;;8.40;;
14688;SDS011;7432;48.728;9.154;2023-10-08T00:44:07;9.93;;;8.60;;
14688;SDS011;7432;48.728;9.154;2023-10-08T00:46:37;8.83;;;7.87;;
14688;SDS011;7432;48.728;9.154;2023-10-08T00:49:07;10.03;;;9.00;;
14688;SDS011;7432;48.728;9.154;2023-10-08T00:51:49;9.60;;;8.60;;
14688;SDS011;7432;48.728;9.154;2023-10-08T00:54:26;9.20;;;8.30;;
14688;SDS011;7432;48.728;9.154;2023-10-08T00:56:58;9.83;;;8.70;;
14688;SDS011;7432;48.728;9.154;2023-10-08T00:59:31;9.27;;;8.30;;
14688;SDS011;7432;48.728;9.154;2023-10-08T01:02:06;10.07;;;8.23;;
14688;SDS011;7432;48.728;9.154;2023-10-08T01:04:39;9.07;;;7.93;;
14688;SDS011;7432;48.728;9.154;2023-10-08T01:07:08;9.00;;;8.20;;
14688;SDS011;7432;48.728;9.154;2023-10-08T01:09:39;8.57;;;7.87;;
14688;SDS011;7432;48.728;9.154;2023-10-08T01:12:08;8.30;;;7.37;;
14688;SDS011;7432;48.728;9.154;2023-10-08T01:14:38;12.80;;;8.40;;
14688;SDS011;7432;48.728;9.154;2023-10-08T01:17:07;8.50;;;7.70;;
14688;SDS011;7432;48.728;9.154;2023-10-08T01:19:33;8.37;;;7.67;;
14688;SDS011;7432;48.728;9.154;2023-10-08T01:22:06;8.97;;;8.17;;
14688;SDS011;7432;48.728;9.154;2023-10-08T01:24:33;8.77;;;7.97;;
14688;SDS011;7432;48.728;9.154;2023-10-08T01:27:00;8.77;;;7.83;;
14688;SDS011;7432;48.728;9.154;2023-10-08T01:29:29;8.93;;;8.10;;
14688;SDS011;7432;48.728;9.154;2023-10-08T01:31:56;9.10;;;8.20;;
14688;SDS011;7432;48.728;9.154;2023-10-08T01:34:23;10.33;;;7.83;;
14688;SDS011;7432;48.728;9.154;2023-10-08T01:36:55;9.17;;;8.37;;
14688;SDS011;7432;48.728;9.154;2023-10-08T01:39:27;8.40;;;7.70;;
14688;SDS011;7432;48.728;9.154;2023-10-08T01:41:57;10.40;;;8.10;;
14688;SDS011;7432;48.728;9.154;2023-10-08T01:44:23;9.03;;;8.23;;
14688;SDS011;7432;48.728;9.154;2023-10-08T01:46:50;9.00;;;8.17;;
14688;SDS011;7432;48.728;9.154;2023-10-08T01:49:17;9.60;;;8.13;;
14688;SDS011;7432;48.728;9.154;2023-10-08T01:51:47;8.50;;;7.80;;
14688;SDS011;7432;48.728;9.154;2023-10-08T01:54:14;8.13;;;7.33;;
14688;SDS011;7432;48.728;9.154;2023-10-08T01:56:44;8.97;;;8.07;;
14688;SDS011;7432;48.728;9.154;2023-10-08T01:59:10;8.97;;;8.17;;
14688;SDS011;7432;48.728;9.154;2023-10-08T02:01:39;8.63;;;7.73;;
14688;SDS011;7432;48.728;9.154;2023-10-08T02:04:06;8.70;;;7.83;;
14688;SDS011;7432;48.728;9.154;2023-10-08T02:06:33;8.87;;;8.00;;
14688;SDS011;7432;48.728;9.154;2023-10-08T02:09:00;8.60;;;7.90;;
14688;SDS011;7432;48.728;9.154;2023-10-08T02:11:40;8.57;;;7.73;;
14688;SDS011;7432;48.728;9.154;2023-10-08T02:14:09;8.93;;;8.10;;
14688;SDS011;7432;48.728;9.154;2023-10-08T02:16:36;9.90;;;7.90;;
14688;SDS011;7432;48.728;9.154;2023-10-08T02:19:02;9.10;;;8.13;;
14688;SDS011;7432;48.728;9.154;2023-10-08T02:21:29;8.30;;;7.60;;
14688;SDS011;7432;48.728;9.154;2023-10-08T02:23:56;9.10;;;7.23;;
14688;SDS011;7432;48.728;9.154;2023-10-08T02:26:22;8.90;;;8.00;;
14688;SDS011;7432;48.728;9.154;2023-10-08T02:28:49;9.43;;;8.13;;
14688;SDS011;7432;48.728;9.154;2023-10-08T02:31:18;8.60;;;7.80;;
14688;SDS011;7432;48.728;9.154;2023-10-08T02:33:44;8.43;;;7.63;;
14688;SDS011;7432;48.728;9.154;2023-10-08T02:36:11;10.20;;;7.87;;
14688;SDS011;7432;48.728;9.154;2023-10-08T02:38:38;9.90;;;8.27;;
14688;SDS011;7432;48.728;9.154;2023-10-08T02:41:05;8.77;;;7.97;;
14688;SDS011;7432;48.728;9.154;2023-10-08T02:43:32;8.77;;;7.90;;
14688;SDS011;7432;48.728;9.154;2023-10-08T02:46:01;8.73;;;7.93;;
14688;SDS011;7432;48.728;9.154;2023-10-08T02:48:33;9.10;;;8.30;;
14688;SDS011;7432;48.728;9.154;2023-10-08T02:50:59;8.90;;;8.10;;
14688;SDS011;7432;48.728;9.154;2023-10-08T02:53:38;9.13;;;8.23;;
14688;SDS011;7432;48.728;9.154;2023-10-08T02:56:06;9.43;;;8.27;;
14688;SDS011;7432;48.728;9.154;2023-10-08T02:58:37;9.17;;;8.13;;
14688;SDS011;7432;48.728;9.154;2023-10-08T03:01:04;9.97;;;8.93;;
14688;SDS011;7432;48.728;9.154;2023-10-08T03:03:33;8.83;;;7.97;;
14688;SDS011;7432;48.728;9.154;2023-10-08T03:06:01;8.83;;;8.13;;
14688;SDS011;7432;48.728;9.154;2023-10-08T03:08:28;9.77;;;8.77;;
14688;SDS011;7432;48.728;9.154;2023-10-08T03:10:56;10.20;;;9.00;;
14688;SDS011;7432;48.728;9.154;2023-10-08T03:13:27;9.53;;;8.53;;
14688;SDS011;7432;48.728;9.154;2023-10-08T03:15:54;9.17;;;8.37;;
14688;SDS011;7432;48.728;9.154;2023-10-08T03:18:34;8.53;;;7.73;;
14688;SDS011;7432;48.728;9.154;2023-10-08T03:21:08;8.97;;;7.77;;
14688;SDS011;7432;48.728;9.154;2023-10-08T03:23:45;8.90;;;8.00;;
14688;SDS011;7432;48.728;9.154;2023-10-08T03:26:12;8.90;;;8.00;;
14688;SDS011;7432;48.728;9.154;2023-10-08T03:28:57;9.30;;;8.50;;
14688;SDS011;7432;48.728;9.154;2023-10-08T03:31:25;9.50;;;8.50;;
14688;SDS011;7432;48.728;9.154;2023-10-08T03:34:11;9.07;;;8.17;;
14688;SDS011;7432;48.728;9.154;2023-10-08T03:36:39;9.10;;;8.30;;
14688;SDS011;7432;48.728;9.154;2023-10-08T03:39:09;9.77;;;8.33;;
14688;SDS011;7432;48.728;9.154;2023-10-08T03:41:38;9.87;;;8.50;;
14688;SDS011;7432;48.728;9.154;2023-10-08T03:44:05;9.50;;;8.10;;
14688;SDS011;7432;48.728;9.154;2023-10-08T03:46:37;9.20;;;8.40;;
14688;SDS011;7432;48.728;9.154;2023-10-08T03:49:07;9.23;;;8.17;;
14688;SDS011;7432;48.728;9.154;2023-10-08T03:51:41;8.93;;;8.10;;
14688;SDS011;7432;48.728;9.154;2023-10-08T03:54:08;8.67;;;7.87;;
14688;SDS011;7432;48.728;9.154;2023-10-08T03:56:42;9.30;;;8.40;;
14688;SDS011;7432;48.728;9.154;2023-10-08T03:59:13;8.97;;;8.07;;
14688;SDS011;7432;48.728;9.154;2023-10-08T04:01:45;8.73;;;7.77;;
14688;SDS011;7432;48.728;9.154;2023-10-08T04:04:14;8.93;;;7.67;;
14688;SDS011;7432;48.728;9.154;2023-10-08T04:06:42;8.60;;;7.83;;
14688;SDS011;7432;48.728;9.154;2023-10-08T04:09:15;8.83;;;7.97;;
14688;SDS011;7432;48.728;9.154;2023-10-08T04:11:50;8.77;;;7.90;;
14688;SDS011;7432;48.728;9.154;2023-10-08T04:14:22;9.30;;;8.00;;
14688;SDS011;7432;48.728;9.154;2023-10-08T04:16:49;9.33;;;8.20;;
14688;SDS011;7432;48.728;9.154;2023-10-08T04:19:17;9.00;;;8.10;;
14688;SDS011;7432;48.728;9.154;2023-10-08T04:21:46;9.50;;;8.50;;
14688;SDS011;7432;48.728;9.154;2023-10-08T04:24:19;10.03;;;8.03;;
14688;SDS011;7432;48.728;9.154;2023-10-08T04:26:52;8.40;;;7.53;;
14688;SDS011;7432;48.728;9.154;2023-10-08T04:29:21;8.90;;;7.90;;
14688;SDS011;7432;48.728;9.154;2023-10-08T04:31:48;9.60;;;8.40;;
14688;SDS011;7432;48.728;9.154;2023-10-08T04:34:26;10.00;;;8.80;;
14688;SDS011;7432;48.728;9.154;2023-10-08T04:36:54;9.73;;;8.70;;
14688;SDS011;7432;48.728;9.154;2023-10-08T04:39:25;9.57;;;8.57;;
14688;SDS011;7432;48.728;9.154;2023-10-08T04:41:57;8.67;;;7.87;;
14688;SDS011;7432;48.728;9.154;2023-10-08T04:44:30;8.87;;;8.07;;
14688;SDS011;7432;48.728;9.154;2023-10-08T04:46:57;10.13;;;8.03;;
14688;SDS011;7432;48.728;9.154;2023-10-08T04:49:29;8.97;;;8.10;;
14688;SDS011;7432;48.728;9.154;2023-10-08T04:51:59;9.00;;;8.20;;
14688;SDS011;7432;48.728;9.154;2023-10-08T04:54:30;9.03;;;8.23;;
14688;SDS011;7432;48.728;9.154;2023-10-08T04:56:57;8.90;;;7.90;;
14688;SDS011;7432;48.728;9.154;2023-10-08T04:59:25;8.70;;;7.80;;
14688;SDS011;7432;48.728;9.154;2023-10-08T05:01:57;8.57;;;7.77;;
14688;SDS011;7432;48.728;9.154;2023-10-08T05:04:44;9.50;;;8.17;;
14688;SDS011;7432;48.728;9.154;2023-10-08T05:07:48;9.30;;;8.30;;
14688;SDS011;7432;48.728;9.154;2023-10-08T05:10:26;8.63;;;7.83;;
14688;SDS011;7432;48.728;9.154;2023-10-08T05:13:25;10.50;;;7.30;;
14688;SDS011;7432;48.728;9.154;2023-10-08T05:15:57;9.83;;;7.30;;
14688;SDS011;7432;48.728;9.154;2023-10-08T05:18:54;8.70;;;7.83;;
14688;SDS011;7432;48.728;9.154;2023-10-08T05:21:39;10.00;;;8.03;;
14688;SDS011;7432;48.728;9.154;2023-10-08T05:24:18;8.97;;;8.07;;
14688;SDS011;7432;48.728;9.154;2023-10-08T05:26:52;8.87;;;7.90;;
14688;SDS011;7432;48.728;9.154;2023-10-08T05:29:39;9.47;;;8.30;;
14688;SDS011;7432;48.728;9.154;2023-10-08T05:32:17;8.80;;;7.90;;
14688;SDS011;7432;48.728;9.154;2023-10-08T05:35:03;9.20;;;8.30;;
14688;SDS011;7432;48.728;9.154;2023-10-08T05:37:44;8.40;;;7.60;;
14688;SDS011;7432;48.728;9.154;2023-10-08T05:40:18;9.53;;;8.00;;
14688;SDS011;7432;48.728;9.154;2023-10-08T05:43:07;8.83;;;8.00;;
14688;SDS011;7432;48.728;9.154;2023-10-08T05:45:48;9.70;;;8.70;;
14688;SDS011;7432;48.728;9.154;2023-10-08T05:48:38;8.90;;;8.10;;
14688;SDS011;7432;48.728;9.154;2023-10-08T05:51:11;9.97;;;7.50;;
14688;SDS011;7432;48.728;9.154;2023-10-08T05:53:48;9.03;;;7.60;;
14688;SDS011;7432;48.728;9.154;2023-10-08T05:56:22;10.27;;;8.00;;
14688;SDS011;7432;48.728;9.154;2023-10-08T05:59:06;8.43;;;7.50;;
14688;SDS011;7432;48.728;9.154;2023-10-08T06:01:42;8.77;;;7.93;;
14688;SDS011;7432;48.728;9.154;2023-10-08T06:04:11;8.03;;;6.77;;
14688;SDS011;7432;48.728;9.154;2023-10-08T06:06:56;8.77;;;7.90;;
14688;SDS011;7432;48.728;9.154;2023-10-08T06:09:37;8.73;;;7.93;;
14688;SDS011;7432;48.728;9.154;2023-10-08T06:12:05;9.10;;;8.30;;
14688;SDS011;7432;48.728;9.154;2023-10-08T06:14:44;11.10;;;8.53;;
14688;SDS011;7432;48.728;9.154;2023-10-08T06:17:29;9.23;;;8.40;;
14688;SDS011;7432;48.728;9.154;2023-10-08T06:20:21;8.03;;;7.23;;
14688;SDS011;7432;48.728;9.154;2023-10-08T06:22:50;9.23;;;8.37;;
14688;SDS011;7432;48.728;9.154;2023-10-08T06:25:19;9.53;;;7.60;;
14688;SDS011;7432;48.728;9.154;2023-10-08T06:27:50;8.97;;;7.83;;
14688;SDS011;7432;48.728;9.154;2023-10-08T06:30:20;10.40;;;7.73;;
14688;SDS011;7432;48.728;9.154;2023-10-08T06:32:48;8.57;;;7.77;;
14688;SDS011;7432;48.728;9.154;2023-10-08T06:35:16;8.60;;;7.83;;
14688;SDS011;7432;48.728;9.154;2023-10-08T06:37:43;8.57;;;7.70;;
14688;SDS011;7432;48.728;9.154;2023-10-08T06:40:11;8.73;;;7.87;;
14688;SDS011;7432;48.728;9.154;2023-10-08T06:42:59;9.53;;;8.03;;
14688;SDS011;7432;48.728;9.154;2023-10-08T06:45:36;8.33;;;7.47;;
14688;SDS011;7432;48.728;9.154;2023-10-08T06:48:02;8.37;;;7.60;;
14688;SDS011;7432;48.728;9.154;2023-10-08T06:50:31;9.13;;;7.80;;
14688;SDS011;7432;48.728;9.154;2023-10-08T06:53:01;8.77;;;7.97;;
14688;SDS011;7432;48.728;9.154;2023-10-08T06:55:31;9.53;;;8.43;;
14688;SDS011;7432;48.728;9.154;2023-10-08T06:58:00;8.93;;;8.13;;
14688;SDS011;7432;48.728;9.154;2023-10-08T07:00:27;8.43;;;7.60;;
14688;SDS011;7432;48.728;9.154;2023-10-08T07:03:03;8.43;;;7.63;;
14688;SDS011;7432;48.728;9.154;2023-10-08T07:05:32;8.73;;;7.90;;
14688;SDS011;7432;48.728;9.154;2023-10-08T07:08:01;8.73;;;7.93;;
14688;SDS011;7432;48.728;9.154;2023-10-08T07:10:31;9.00;;;8.03;;
14688;SDS011;7432;48.728;9.154;2023-10-08T07:13:00;10.33;;;8.03;;
14688;SDS011;7432;48.728;9.154;2023-10-08T07:15:27;9.10;;;7.30;;
14688;SDS011;7432;48.728;9.154;2023-10-08T07:17:53;9.17;;;7.67;;
14688;SDS011;7432;48.728;9.154;2023-10-08T07:20:19;8.13;;;7.33;;
14688;SDS011;7432;48.728;9.154;2023-10-08T07:22:47;8.47;;;7.77;;
14688;SDS011;7432;48.728;9.154;2023-10-08T07:25:19;8.80;;;7.90;;
14688;SDS011;7432;48.728;9.154;2023-10-08T07:27:46;8.53;;;7.77;;
14688;SDS011;7432;48.728;9.154;2023-10-08T07:30:14;8.27;;;7.47;;
14688;SDS011;7432;48.728;9.154;2023-10-08T07:32:51;9.07;;;8.10;;
14688;SDS011;7432;48.728;9.154;2023-10-08T07:35:19;10.10;;;9.10;;
14688;SDS011;7432;48.728;9.154;2023-10-08T07:37:50;9.17;;;8.07;;
14688;SDS011;7432;48.728;9.154;2023-10-08T07:40:18;8.60;;;7.77;;
14688;SDS011;7432;48.728;9.154;2023-10-08T07:42:45;9.60;;;8.77;;
14688;SDS011;7432;48.728;9.154;2023-10-08T07:45:18;9.10;;;8.20;;
14688;SDS011;7432;48.728;9.154;2023-10-08T07:47:46;9.13;;;8.30;;
14688;SDS011;7432;48.728;9.154;2023-10-08T07:50:13;10.03;;;9.10;;
14688;SDS011;7432;48.728;9.154;2023-10-08T07:52:41;9.37;;;8.47;;
14688;SDS011;7432;48.728;9.154;2023-10-08T07:55:09;9.03;;;8.23;;
14688;SDS011;7432;48.728;9.154;2023-10-08T07:57:42;9.50;;;8.60;;
14688;SDS011;7432;48.728;9.154;2023-10-08T08:00:09;9.37;;;8.47;;
14688;SDS011;7432;48.728;9.154;2023-10-08T08:02:45;9.63;;;8.68;;
14688;SDS011;7432;48.728;9.154;2023-10-08T08:05:11;9.48;;;8.20;;
14688;SDS011;7432;48.728;9.154;2023-10-08T08:07:42;9.65;;;8.65;;
14688;SDS011;7432;48.728;9.154;2023-10-08T08:10:10;9.65;;;8.73;;
14688;SDS011;7432;48.728;9.154;2023-10-08T08:12:37;10.70;;;8.38;;
14688;SDS011;7432;48.728;9.154;2023-10-08T08:15:04;9.85;;;8.70;;
14688;SDS011;7432;48.728;9.154;2023-10-08T08:17:39;10.13;;;7.90;;
14688;SDS011;7432;48.728;9.154;2023-10-08T08:20:08;8.60;;;7.80;;
14688;SDS011;7432;48.728;9.154;2023-10-08T08:22:43;9.40;;;8.60;;
14688;SDS011;7432;48.728;9.154;2023-10-08T08:25:15;8.68;;;7.95;;
14688;SDS011;7432;48.728;9.154;2023-10-08T08:27:41;9.95;;;8.90;;
14688;SDS011;7432;48.728;9.154;2023-10-08T08:30:09;8.80;;;8.00;;
14688;SDS011;7432;48.728;9.154;2023-10-08T08:32:40;9.80;;;8.88;;
14688;SDS011;7432;48.728;9.154;2023-10-08T08:35:10;11.23;;;8.80;;
14688;SDS011;7432;48.728;9.154;2023-10-08T08:37:41;9.68;;;8.70;;
14688;SDS011;7432;48.728;9.154;2023-10-08T08:40:08;10.57;;;9.50;;
14688;SDS011;7432;48.728;9.154;2023-10-08T08:42:42;11.85;;;9.55;;
14688;SDS011;7432;48.728;9.154;2023-10-08T08:45:10;10.98;;;9.98;;
14688;SDS011;7432;48.728;9.154;2023-10-08T08:47:39;10.18;;;9.38;;
14688;SDS011;7432;48.728;9.154;2023-10-08T08:50:07;10.23;;;9.40;;
14688;SDS011;7432;48.728;9.154;2023-10-08T08:52:35;10.63;;;9.73;;
14688;SDS011;7432;48.728;9.154;2023-10-08T08:55:03;11.00;;;10.02;;
14688;SDS011;7432;48.728;9.154;2023-10-08T08:57:34;11.18;;;10.20;;
14688;SDS011;7432;48.728;9.154;2023-10-08T09:00:05;11.20;;;10.20;;
14688;SDS011;7432;48.728;9.154;2023-10-08T09:02:37;11.30;;;10.32;;
14688;SDS011;7432;48.728;9.154;2023-10-08T09:05:04;10.88;;;9.90;;
14688;SDS011;7432;48.728;9.154;2023-10-08T09:07:52;10.75;;;9.90;;
14688;SDS011;7432;48.728;9.154;2023-10-08T09:10:20;11.15;;;10.05;;
14688;SDS011;7432;48.728;9.154;2023-10-08T09:12:51;10.00;;;9.27;;
14688;SDS011;7432;48.728;9.154;2023-10-08T09:15:18;9.68;;;8.77;;
14688;SDS011;7432;48.728;9.154;2023-10-08T09:17:47;10.63;;;9.63;;
14688;SDS011;7432;48.728;9.154;2023-10-08T09:20:14;11.05;;;9.60;;
14688;SDS011;7432;48.728;9.154;2023-10-08T09:22:40;10.10;;;9.25;;
14688;SDS011;7432;48.728;9.154;2023-10-08T09:25:08;10.57;;;9.55;;
14688;SDS011;7432;48.728;9.154;2023-10-08T09:27:35;11.35;;;9.38;;
14688;SDS011;7432;48.728;9.154;2023-10-08T09:30:03;10.25;;;9.18;;
14688;SDS011;7432;48.728;9.154;2023-10-08T09:32:33;10.18;;;9.18;;
14688;SDS011;7432;48.728;9.154;2023-10-08T09:34:59;10.50;;;9.50;;
14688;SDS011;7432;48.728;9.154;2023-10-08T09:37:25;9.73;;;8.82;;
14688;SDS011;7432;48.728;9.154;2023-10-08T09:39:52;10.25;;;9.45;;
14688;SDS011;7432;48.728;9.154;2023-10-08T09:42:23;10.50;;;9.55;;
14688;SDS011;7432;48.728;9.154;2023-10-08T09:44:50;10.40;;;9.48;;
14688;SDS011;7432;48.728;9.154;2023-10-08T09:47:19;13.98;;;9.63;;
14688;SDS011;7432;48.728;9.154;2023-10-08T09:49:49;11.10;;;8.98;;
14688;SDS011;7432;48.728;9.154;2023-10-08T09:52:33;10.70;;;9.75;;
14688;SDS011;7432;48.728;9.154;2023-10-08T09:55:07;10.65;;;9.55;;
14688;SDS011;7432;48.728;9.154;2023-10-08T09:57:37;10.73;;;9.60;;
14688;SDS011;7432;48.728;9.154;2023-10-08T10:00:04;10.82;;;9.77;;
14688;SDS011;7432;48.728;9.154;2023-10-08T10:02:35;11.05;;;10.07;;
14688;SDS011;7432;48.728;9.154;2023-10-08T10:05:02;10.50;;;9.70;;
14688;SDS011;7432;48.728;9.154;2023-10-08T10:07:31;10.45;;;9.65;;
14688;SDS011;7432;48.728;9.154;2023-10-08T10:09:57;10.65;;;9.63;;
14688;SDS011;7432;48.728;9.154;2023-10-08T10:12:24;10.95;;;10.00;;
14688;SDS011;7432;48.728;9.154;2023-10-08T10:14:53;10.35;;;9.43;;
14688;SDS011;7432;48.728;9.154;2023-10-08T10:17:21;10.20;;;9.43;;
14688;SDS011;7432;48.728;9.154;2023-10-08T10:19:50;11.65;;;10.48;;
14688;SDS011;7432;48.728;9.154;2023-10-08T10:22:29;11.30;;;9.82;;
14688;SDS011;7432;48.728;9.154;2023-10-08T10:24:57;10.50;;;9.45;;
14688;SDS011;7432;48.728;9.154;2023-10-08T10:27:29;10.48;;;9.38;;
14688;SDS011;7432;48.728;9.154;2023-10-08T10:30:02;11.52;;;10.27;;
14688;SDS011;7432;48.728;9.154;2023-10-08T10:32:33;11.95;;;10.68;;
14688;SDS011;7432;48.728;9.154;2023-10-08T10:35:00;11.55;;;10.60;;
14688;SDS011;7432;48.728;9.154;2023-10-08T10:37:28;11.40;;;10.40;;
14688;SDS011;7432;48.728;9.154;2023-10-08T10:40:06;10.80;;;9.90;;
14688;SDS011;7432;48.728;9.154;2023-10-08T10:42:37;10.63;;;9.73;;
14688;SDS011;7432;48.728;9.154;2023-10-08T10:45:13;10.23;;;9.45;;
14688;SDS011;7432;48.728;9.154;2023-10-08T10:47:59;10.70;;;9.88;;
14688;SDS011;7432;48.728;9.154;2023-10-08T10:50:36;11.05;;;10.07;;
14688;SDS011;7432;48.728;9.154;2023-10-08T10:53:13;11.15;;;10.18;;
14688;SDS011;7432;48.728;9.154;2023-10-08T10:55:38;10.85;;;9.95;;
14688;SDS011;7432;48.728;9.154;2023-10-08T10:58:13;10.88;;;9.90;;
14688;SDS011;7432;48.728;9.154;2023-10-08T11:00:42;11.52;;;10.52;;
14688;SDS011;7432;48.728;9.154;2023-10-08T11:03:22;10.68;;;9.52;;
14688;SDS011;7432;48.728;9.154;2023-10-08T11:05:50;11.57;;;10.02;;
14688;SDS011;7432;48.728;9.154;2023-10-08T11:08:20;10.82;;;9.93;;
14688;SDS011;7432;48.728;9.154;2023-10-08T11:10:48;14.20;;;10.18;;
14688;SDS011;7432;48.728;9.154;2023-10-08T11:13:17;10.98;;;9.95;;
14688;SDS011;7432;48.728;9.154;2023-10-08T11:15:46;11.90;;;10.75;;
14688;SDS011;7432;48.728;9.154;2023-10-08T11:18:17;11.00;;;10.07;;
14688;SDS011;7432;48.728;9.154;2023-10-08T11:20:44;11.20;;;10.20;;
14688;SDS011;7432;48.728;9.154;2023-10-08T11:23:11;11.13;;;10.02;;
14688;SDS011;7432;48.728;9.154;2023-10-08T11:25:53;11.52;;;10.57;;
14688;SDS011;7432;48.728;9.154;2023-10-08T11:28:20;12.27;;;10.38;;
14688;SDS011;7432;48.728;9.154;2023-10-08T11:30:48;11.30;;;10.27;;
14688;SDS011;7432;48.728;9.154;2023-10-08T11:33:18;11.27;;;10.13;;
14688;SDS011;7432;48.728;9.154;2023-10-08T11:35:57;10.68;;;9.77;;
14688;SDS011;7432;48.728;9.154;2023-10-08T11:38:25;11.93;;;10.93;;
14688;SDS011;7432;48.728;9.154;2023-10-08T11:40:52;11.07;;;10.10;;
14688;SDS011;7432;48.728;9.154;2023-10-08T11:43:21;10.40;;;9.40;;
14688;SDS011;7432;48.728;9.154;2023-10-08T11:45:49;12.63;;;9.90;;
14688;SDS011;7432;48.728;9.154;2023-10-08T11:48:16;11.00;;;9.93;;
14688;SDS011;7432;48.728;9.154;2023-10-08T11:50:50;10.95;;;9.77;;
14688;SDS011;7432;48.728;9.154;2023-10-08T11:53:17;10.57;;;9.77;;
14688;SDS011;7432;48.728;9.154;2023-10-08T11:55:44;10.48;;;9.57;;
14688;SDS011;7432;48.728;9.154;2023-10-08T11:58:13;11.32;;;10.23;;
14688;SDS011;7432;48.728;9.154;2023-10-08T12:00:42;11.82;;;10.73;;
14688;SDS011;7432;48.728;9.154;2023-10-08T12:03:11;11.57;;;10.48;;
14688;SDS011;7432;48.728;9.154;2023-10-08T12:05:38;11.90;;;10.73;;
14688;SDS011;7432;48.728;9.154;2023-10-08T12:08:12;11.32;;;10.40;;
14688;SDS011;7432;48.728;9.154;2023-10-08T12:10:39;11.95;;;10.50;;
14688;SDS011;7432;48.728;9.154;2023-10-08T12:13:06;10.77;;;9.88;;
14688;SDS011;7432;48.728;9.154;2023-10-08T12:15:35;11.68;;;9.80;;
14688;SDS011;7432;48.728;9.154;2023-10-08T12:18:04;11.90;;;10.48;;
14688;SDS011;7432;48.728;9.154;2023-10-08T12:20:39;10.80;;;9.82;;
14688;SDS011;7432;48.728;9.154;2023-10-08T12:23:09;11.52;;;10.32;;
14688;SDS011;7432;48.728;9.154;2023-10-08T12:25:36;11.40;;;10.32;;
14688;SDS011;7432;48.728;9.154;2023-10-08T12:28:04;12.10;;;10.85;;
14688;SDS011;7432;48.728;9.154;2023-10-08T12:30:31;12.05;;;10.20;;
14688;SDS011;7432;48.728;9.154;2023-10-08T12:33:06;13.60;;;10.40;;
14688;SDS011;7432;48.728;9.154;2023-10-08T12:35:35;10.48;;;9.57;;
14688;SDS011;7432;48.728;9.154;2023-10-08T12:38:03;11.85;;;10.68;;
14688;SDS011;7432;48.728;9.154;2023-10-08T12:40:30;12.35;;;11.05;;
14688;SDS011;7432;48.728;9.154;2023-10-08T12:43:07;11.80;;;10.57;;
14688;SDS011;7432;48.728;9.154;2023-10-08T12:45:34;13.90;;;10.60;;
14688;SDS011;7432;48.728;9.154;2023-10-08T12:48:02;11.00;;;10.00;;
14688;SDS011;7432;48.728;9.154;2023-10-08T12:50:30;15.43;;;10.32;;
14688;SDS011;7432;48.728;9.154;2023-10-08T12:53:08;13.07;;;9.80;;
14688;SDS011;7432;48.728;9.154;2023-10-08T12:55:36;10.95;;;10.05;;
14688;SDS011;7432;48.728;9.154;2023-10-08T12:58:04;10.55;;;9.48;;
14688;SDS011;7432;48.728;9.154;2023-10-08T13:00:34;11.73;;;10.57;;
14688;SDS011;7432;48.728;9.154;2023-10-08T13:03:03;12.32;;;10.32;;
14688;SDS011;7432;48.728;9.154;2023-10-08T13:05:36;17.30;;;10.80;;
14688;SDS011;7432;48.728;9.154;2023-10-08T13:08:02;11.98;;;10.15;;
14688;SDS011;7432;48.728;9.154;2023-10-08T13:10:36;14.23;;;9.70;;
14688;SDS011;7432;48.728;9.154;2023-10-08T13:13:06;17.45;;;10.48;;
14688;SDS011;7432;48.728;9.154;2023-10-08T13:15:33;16.17;;;10.38;;
14688;SDS011;7432;48.728;9.154;2023-10-08T13:18:00;13.85;;;10.75;;
14688;SDS011;7432;48.728;9.154;2023-10-08T13:20:28;12.30;;;11.02;;
14688;SDS011;7432;48.728;9.154;2023-10-08T13:22:58;11.70;;;10.63;;
14688;SDS011;7432;48.728;9.154;2023-10-08T13:25:24;11.98;;;10.25;;
14688;SDS011;7432;48.728;9.154;2023-10-08T13:27:53;12.68;;;9.45;;
14688;SDS011;7432;48.728;9.154;2023-10-08T13:30:19;12.50;;;10.63;;
14688;SDS011;7432;48.728;9.154;2023-10-08T13:32:48;15.18;;;10.65;;
14688;SDS011;7432;48.728;9.154;2023-10-08T13:35:15;18.40;;;10.95;;
14688;SDS011;7432;48.728;9.154;2023-10-08T13:37:41;11.95;;;9.88;;
14688;SDS011;7432;48.728;9.154;2023-10-08T13:40:08;20.45;;;10.07;;
14688;SDS011;7432;48.728;9.154;2023-10-08T13:42:40;17.80;;;10.68;;
14688;SDS011;7432;48.728;9.154;2023-10-08T13:45:08;15.85;;;10.13;;
14688;SDS011;7432;48.728;9.154;2023-10-08T13:47:41;14.93;;;9.75;;
14688;SDS011;7432;48.728;9.154;2023-10-08T13:50:08;11.32;;;9.48;;
14688;SDS011;7432;48.728;9.154;2023-10-08T13:52:37;17.50;;;9.57;;
14688;SDS011;7432;48.728;9.154;2023-10-08T13:55:05;16.20;;;9.70;;
14688;SDS011;7432;48.728;9.154;2023-10-08T13:57:38;13.85;;;9.85;;
14688;SDS011;7432;48.728;9.154;2023-10-08T14:00:08;16.65;;;10.63;;
14688;SDS011;7432;48.728;9.154;2023-10-08T14:02:40;14.48;;;10.63;;
14688;SDS011;7432;48.728;9.154;2023-10-08T14:05:07;18.73;;;9.50;;
14688;SDS011;7432;48.728;9.154;2023-10-08T14:07:34;18.17;;;10.38;;
14688;SDS011;7432;48.728;9.154;2023-10-08T14:10:01;19.63;;;10.18;;
14688;SDS011;7432;48.728;9.154;2023-10-08T14:12:30;13.68;;;9.52;;
14688;SDS011;7432;48.728;9.154;2023-10-08T14:14:59;20.50;;;10.75;;
14688;SDS011;7432;48.728;9.154;2023-10-08T14:17:32;11.75;;;9.85;;
14688;SDS011;7432;48.728;9.154;2023-10-08T14:20:08;13.63;;;9.32;;
14688;SDS011;7432;48.728;9.154;2023-10-08T14:22:38;12.52;;;9.77;;
14688;SDS011;7432;48.728;9.154;2023-10-08T14:25:05;14.65;;;9.90;;
14688;SDS011;7432;48.728;9.154;2023-10-08T14:27:37;14.07;;;10.60;;
14688;SDS011;7432;48.728;9.154;2023-10-08T14:30:05;13.48;;;10.35;;
14688;SDS011;7432;48.728;9.154;2023-10-08T14:32:41;17.85;;;9.68;;
14688;SDS011;7432;48.728;9.154;2023-10-08T14:35:10;12.82;;;10.10;;
14688;SDS011;7432;48.728;9.154;2023-10-08T14:37:55;14.07;;;10.10;;
14688;SDS011;7432;48.728;9.154;2023-10-08T14:40:39;14.48;;;10.38;;
14688;SDS011;7432;48.728;9.154;2023-10-08T14:43:31;13.55;;;10.57;;
14688;SDS011;7432;48.728;9.154;2023-10-08T14:46:00;16.90;;;10.70;;
14688;SDS011;7432;48.728;9.154;2023-10-08T14:48:30;16.63;;;10.00;;
14688;SDS011;7432;48.728;9.154;2023-10-08T14:51:00;12.18;;;9.90;;
14688;SDS011;7432;48.728;9.154;2023-10-08T14:53:27;12.38;;;10.38;;
14688;SDS011;7432;48.728;9.154;2023-10-08T14:55:54;14.07;;;10.10;;
14688;SDS011;7432;48.728;9.154;2023-10-08T14:58:22;12.77;;;9.57;;
14688;SDS011;7432;48.728;9.154;2023-10-08T15:00:50;17.88;;;9.38;;
14688;SDS011;7432;48.728;9.154;2023-10-08T15:03:19;12.52;;;9.57;;
14688;SDS011;7432;48.728;9.154;2023-10-08T15:05:47;12.65;;;9.95;;
14688;SDS011;7432;48.728;9.154;2023-10-08T15:08:14;14.52;;;10.27;;
14688;SDS011;7432;48.728;9.154;2023-10-08T15:10:43;13.93;;;10.05;;
14688;SDS011;7432;48.728;9.154;2023-10-08T15:13:11;11.02;;;10.02;;